sensor_id;sensor_type;location;lat;lon;timestamp;pressure;altitude;pressure_sealevel;temperature;humidity
50310;BME280;36207;51.850;21.698;2023-06-22T00:00:53;99949.73;;;21.94;66.15
50310;BME280;36207;51.850;21.698;2023-06-22T00:03:30;99947.53;;;21.91;66.04
50310;BME280;36207;51.850;21.698;2023-06-22T00:05:56;99943.77;;;21.86;66.15
50310;BME280;36207;51.850;21.698;2023-06-22T00:08:22;99952.52;;;21.80;66.55
50310;BME280;36207;51.850;21.698;2023-06-22T00:10:48;99942.40;;;21.74;66.22
50310;BME280;36207;51.850;21.698;2023-06-22T00:13:14;99943.53;;;21.68;66.61
50310;BME280;36207;51.850;21.698;2023-06-22T00:15:41;99944.34;;;21.63;66.54
50310;BME280;36207;51.850;21.698;2023-06-22T00:18:08;99938.89;;;21.59;66.86
50310;BME280;36207;51.850;21.698;2023-06-22T00:20:34;99938.48;;;21.55;67.05
50310;BME280;36207;51.850;21.698;2023-06-22T00:23:04;99942.51;;;21.51;66.94
50310;BME280;36207;51.850;21.698;2023-06-22T00:25:40;99938.23;;;21.48;67.15
50310;BME280;36207;51.850;21.698;2023-06-22T00:28:07;99939.56;;;21.41;67.19
50310;BME280;36207;51.850;21.698;2023-06-22T00:30:34;99936.65;;;21.36;67.12
50310;BME280;36207;51.850;21.698;2023-06-22T00:33:00;99940.77;;;21.32;67.02
50310;BME280;36207;51.850;21.698;2023-06-22T00:35:27;99941.41;;;21.28;67.05
50310;BME280;36207;51.850;21.698;2023-06-22T00:37:56;99942.33;;;21.22;67.26
50310;BME280;36207;51.850;21.698;2023-06-22T00:40:31;99937.32;;;21.17;67.57
50310;BME280;36207;51.850;21.698;2023-06-22T00:42:58;99938.48;;;21.11;67.54
50310;BME280;36207;51.850;21.698;2023-06-22T00:45:27;99941.01;;;21.06;67.57
50310;BME280;36207;51.850;21.698;2023-06-22T00:47:56;99938.63;;;21.03;67.47
50310;BME280;36207;51.850;21.698;2023-06-22T00:50:23;99939.45;;;21.00;67.63
50310;BME280;36207;51.850;21.698;2023-06-22T00:52:56;99934.84;;;20.96;67.76
50310;BME280;36207;51.850;21.698;2023-06-22T00:55:23;99929.41;;;20.95;67.94
50310;BME280;36207;51.850;21.698;2023-06-22T00:57:49;99926.16;;;20.95;68.30
50310;BME280;36207;51.850;21.698;2023-06-22T01:00:16;99927.06;;;20.94;68.02
50310;BME280;36207;51.850;21.698;2023-06-22T01:02:46;99926.55;;;20.92;68.01
50310;BME280;36207;51.850;21.698;2023-06-22T01:05:13;99919.86;;;20.91;68.14
50310;BME280;36207;51.850;21.698;2023-06-22T01:18:30;99924.88;;;20.75;68.10
50310;BME280;36207;51.850;21.698;2023-06-22T01:20:57;99927.08;;;20.66;67.80
50310;BME280;36207;51.850;21.698;2023-06-22T01:26:42;99924.95;;;20.44;67.83
50310;BME280;36207;51.850;21.698;2023-06-22T01:29:11;99926.42;;;20.34;68.05
50310;BME280;36207;51.850;21.698;2023-06-22T01:31:40;99923.22;;;20.27;67.96
50310;BME280;36207;51.850;21.698;2023-06-22T01:34:08;99929.29;;;20.21;68.19
50310;BME280;36207;51.850;21.698;2023-06-22T01:36:35;99938.02;;;20.15;68.27
50310;BME280;36207;51.850;21.698;2023-06-22T01:39:02;99929.89;;;20.06;68.48
50310;BME280;36207;51.850;21.698;2023-06-22T01:41:34;99927.58;;;20.01;68.72
50310;BME280;36207;51.850;21.698;2023-06-22T01:44:04;99928.39;;;20.01;69.04
50310;BME280;36207;51.850;21.698;2023-06-22T01:46:31;99929.75;;;20.01;69.23
50310;BME280;36207;51.850;21.698;2023-06-22T01:48:58;99931.70;;;20.00;68.89
50310;BME280;36207;51.850;21.698;2023-06-22T01:51:24;99934.45;;;19.98;69.10
50310;BME280;36207;51.850;21.698;2023-06-22T01:53:50;99932.81;;;19.97;69.18
50310;BME280;36207;51.850;21.698;2023-06-22T01:56:17;99929.46;;;19.97;69.25
50310;BME280;36207;51.850;21.698;2023-06-22T01:59:11;99930.44;;;19.95;69.48
50310;BME280;36207;51.850;21.698;2023-06-22T02:01:47;99929.64;;;19.92;69.46
50310;BME280;36207;51.850;21.698;2023-06-22T02:04:26;99924.74;;;19.89;69.30
50310;BME280;36207;51.850;21.698;2023-06-22T02:06:56;99923.73;;;19.86;69.39
50310;BME280;36207;51.850;21.698;2023-06-22T02:09:25;99927.51;;;19.82;69.19
50310;BME280;36207;51.850;21.698;2023-06-22T02:11:55;99925.63;;;19.78;69.21
50310;BME280;36207;51.850;21.698;2023-06-22T02:14:24;99924.57;;;19.79;69.73
50310;BME280;36207;51.850;21.698;2023-06-22T02:16:51;99920.45;;;19.82;70.25
50310;BME280;36207;51.850;21.698;2023-06-22T02:19:22;99921.52;;;19.84;70.21
50310;BME280;36207;51.850;21.698;2023-06-22T02:21:49;99921.99;;;19.86;70.09
50310;BME280;36207;51.850;21.698;2023-06-22T02:24:15;99922.04;;;19.82;69.84
50310;BME280;36207;51.850;21.698;2023-06-22T02:26:42;99921.84;;;19.78;69.78
50310;BME280;36207;51.850;21.698;2023-06-22T02:29:10;99922.58;;;19.74;69.99
50310;BME280;36207;51.850;21.698;2023-06-22T02:31:36;99921.88;;;19.72;69.99
50310;BME280;36207;51.850;21.698;2023-06-22T02:34:02;99918.20;;;19.69;69.91
50310;BME280;36207;51.850;21.698;2023-06-22T02:36:28;99920.09;;;19.66;69.93
50310;BME280;36207;51.850;21.698;2023-06-22T02:38:56;99927.45;;;19.64;69.99
50310;BME280;36207;51.850;21.698;2023-06-22T02:41:27;99932.00;;;19.64;70.16
50310;BME280;36207;51.850;21.698;2023-06-22T02:43:53;99934.12;;;19.64;70.23
50310;BME280;36207;51.850;21.698;2023-06-22T02:46:19;99949.32;;;19.63;70.15
50310;BME280;36207;51.850;21.698;2023-06-22T02:48:45;99954.62;;;19.60;70.45
50310;BME280;36207;51.850;21.698;2023-06-22T02:51:11;99953.48;;;19.58;70.46
50310;BME280;36207;51.850;21.698;2023-06-22T02:53:37;99956.90;;;19.58;70.52
50310;BME280;36207;51.850;21.698;2023-06-22T02:56:03;99962.20;;;19.58;70.78
50310;BME280;36207;51.850;21.698;2023-06-22T02:58:32;99967.77;;;19.57;70.89
50310;BME280;36207;51.850;21.698;2023-06-22T03:01:06;99973.41;;;19.57;70.99
50310;BME280;36207;51.850;21.698;2023-06-22T03:03:32;99982.17;;;19.59;71.12
50310;BME280;36207;51.850;21.698;2023-06-22T03:05:58;99985.59;;;19.62;71.08
50310;BME280;36207;51.850;21.698;2023-06-22T03:08:27;99989.39;;;19.64;71.25
50310;BME280;36207;51.850;21.698;2023-06-22T03:10:53;99994.06;;;19.67;71.47
50310;BME280;36207;51.850;21.698;2023-06-22T03:13:19;99995.10;;;19.69;71.34
50310;BME280;36207;51.850;21.698;2023-06-22T03:15:45;99999.23;;;19.73;71.42
50310;BME280;36207;51.850;21.698;2023-06-22T03:18:11;100003.64;;;19.77;71.78
50310;BME280;36207;51.850;21.698;2023-06-22T03:20:37;100005.48;;;19.82;71.79
50310;BME280;36207;51.850;21.698;2023-06-22T03:23:03;100006.89;;;19.85;71.87
50310;BME280;36207;51.850;21.698;2023-06-22T03:25:30;100002.98;;;19.89;71.99
50310;BME280;36207;51.850;21.698;2023-06-22T03:27:56;100002.34;;;19.96;71.98
50310;BME280;36207;51.850;21.698;2023-06-22T03:30:22;100002.20;;;20.02;72.28
50310;BME280;36207;51.850;21.698;2023-06-22T03:32:48;99999.32;;;20.08;72.27
50310;BME280;36207;51.850;21.698;2023-06-22T03:35:14;100002.33;;;20.13;71.98
50310;BME280;36207;51.850;21.698;2023-06-22T03:37:40;100005.05;;;20.18;72.37
50310;BME280;36207;51.850;21.698;2023-06-22T03:40:07;100005.73;;;20.23;72.42
50310;BME280;36207;51.850;21.698;2023-06-22T03:42:34;100002.84;;;20.25;72.51
50310;BME280;36207;51.850;21.698;2023-06-22T03:45:04;100004.84;;;20.28;72.53
50310;BME280;36207;51.850;21.698;2023-06-22T03:47:31;100007.12;;;20.34;72.67
50310;BME280;36207;51.850;21.698;2023-06-22T03:49:58;100007.06;;;20.40;72.75
50310;BME280;36207;51.850;21.698;2023-06-22T03:52:24;100011.60;;;20.45;72.46
50310;BME280;36207;51.850;21.698;2023-06-22T03:54:51;100013.20;;;20.46;72.57
50310;BME280;36207;51.850;21.698;2023-06-22T03:57:17;100015.91;;;20.47;72.45
50310;BME280;36207;51.850;21.698;2023-06-22T03:59:43;100019.95;;;20.48;72.42
50310;BME280;36207;51.850;21.698;2023-06-22T04:02:09;100022.02;;;20.51;72.51
50310;BME280;36207;51.850;21.698;2023-06-22T04:04:38;100019.31;;;20.53;72.75
50310;BME280;36207;51.850;21.698;2023-06-22T04:07:05;100020.33;;;20.55;72.72
50310;BME280;36207;51.850;21.698;2023-06-22T04:09:31;100022.84;;;20.56;72.62
50310;BME280;36207;51.850;21.698;2023-06-22T04:11:57;100020.88;;;20.59;72.62
50310;BME280;36207;51.850;21.698;2023-06-22T04:14:23;100018.25;;;20.63;72.64
50310;BME280;36207;51.850;21.698;2023-06-22T04:16:49;100019.42;;;20.68;72.98
50310;BME280;36207;51.850;21.698;2023-06-22T04:19:15;100020.10;;;20.73;73.29
50310;BME280;36207;51.850;21.698;2023-06-22T04:21:43;100024.05;;;20.79;73.21
50310;BME280;36207;51.850;21.698;2023-06-22T04:24:11;100026.36;;;20.85;73.31
50310;BME280;36207;51.850;21.698;2023-06-22T04:26:37;100024.23;;;20.90;73.02
50310;BME280;36207;51.850;21.698;2023-06-22T04:29:04;100021.98;;;20.95;73.12
50310;BME280;36207;51.850;21.698;2023-06-22T04:31:32;100018.44;;;21.02;73.26
50310;BME280;36207;51.850;21.698;2023-06-22T04:34:03;100020.19;;;21.10;73.26
50310;BME280;36207;51.850;21.698;2023-06-22T04:36:38;100026.21;;;21.17;73.34
50310;BME280;36207;51.850;21.698;2023-06-22T04:39:09;100026.52;;;21.22;73.40
50310;BME280;36207;51.850;21.698;2023-06-22T04:41:37;100028.05;;;21.27;73.49
50310;BME280;36207;51.850;21.698;2023-06-22T04:44:17;100030.85;;;21.33;73.56
50310;BME280;36207;51.850;21.698;2023-06-22T04:46:54;100027.92;;;21.40;73.64
50310;BME280;36207;51.850;21.698;2023-06-22T04:49:26;100028.30;;;21.47;73.69
50310;BME280;36207;51.850;21.698;2023-06-22T04:51:59;100024.02;;;21.56;73.88
50310;BME280;36207;51.850;21.698;2023-06-22T04:54:25;100028.27;;;21.60;74.08
50310;BME280;36207;51.850;21.698;2023-06-22T04:56:59;100029.94;;;21.63;74.08
50310;BME280;36207;51.850;21.698;2023-06-22T04:59:28;100027.73;;;21.65;74.01
50310;BME280;36207;51.850;21.698;2023-06-22T05:04:22;100030.52;;;21.67;74.20
50310;BME280;36207;51.850;21.698;2023-06-22T05:06:52;100040.60;;;21.68;74.04
50310;BME280;36207;51.850;21.698;2023-06-22T05:09:18;100045.73;;;21.70;74.20
50310;BME280;36207;51.850;21.698;2023-06-22T05:11:45;100039.40;;;21.72;74.06
50310;BME280;36207;51.850;21.698;2023-06-22T05:14:11;100039.39;;;21.75;73.90
50310;BME280;36207;51.850;21.698;2023-06-22T05:16:38;100039.73;;;21.78;73.88
50310;BME280;36207;51.850;21.698;2023-06-22T05:19:04;100040.17;;;21.77;74.09
50310;BME280;36207;51.850;21.698;2023-06-22T05:21:30;100036.48;;;21.78;73.90
50310;BME280;36207;51.850;21.698;2023-06-22T05:23:57;100031.20;;;21.81;74.06
50310;BME280;36207;51.850;21.698;2023-06-22T05:26:26;100029.52;;;21.87;74.37
50310;BME280;36207;51.850;21.698;2023-06-22T05:28:53;100032.08;;;21.92;74.24
50310;BME280;36207;51.850;21.698;2023-06-22T05:31:20;100037.13;;;21.95;74.73
50310;BME280;36207;51.850;21.698;2023-06-22T05:33:47;100031.70;;;21.96;74.42
50310;BME280;36207;51.850;21.698;2023-06-22T05:36:14;100028.61;;;21.97;74.67
50310;BME280;36207;51.850;21.698;2023-06-22T05:38:41;100028.41;;;21.98;74.53
50310;BME280;36207;51.850;21.698;2023-06-22T05:41:08;100030.80;;;21.98;74.69
50310;BME280;36207;51.850;21.698;2023-06-22T05:43:34;100028.66;;;21.96;74.45
50310;BME280;36207;51.850;21.698;2023-06-22T05:46:01;100029.81;;;21.97;74.60
50310;BME280;36207;51.850;21.698;2023-06-22T05:48:27;100037.09;;;22.01;74.85
50310;BME280;36207;51.850;21.698;2023-06-22T05:50:56;100035.55;;;22.04;74.78
50310;BME280;36207;51.850;21.698;2023-06-22T05:53:22;100037.63;;;22.06;74.85
50310;BME280;36207;51.850;21.698;2023-06-22T05:55:49;100034.12;;;22.07;75.12
50310;BME280;36207;51.850;21.698;2023-06-22T05:58:15;100032.24;;;22.10;74.95
50310;BME280;36207;51.850;21.698;2023-06-22T06:00:42;100034.77;;;22.17;75.00
50310;BME280;36207;51.850;21.698;2023-06-22T06:03:09;100035.39;;;22.21;74.82
50310;BME280;36207;51.850;21.698;2023-06-22T06:05:36;100039.94;;;22.24;74.90
50310;BME280;36207;51.850;21.698;2023-06-22T06:08:05;100040.52;;;22.28;74.80
50310;BME280;36207;51.850;21.698;2023-06-22T06:10:33;100037.39;;;22.35;74.94
50310;BME280;36207;51.850;21.698;2023-06-22T06:12:59;100037.73;;;22.43;75.04
50310;BME280;36207;51.850;21.698;2023-06-22T06:15:30;100049.79;;;22.46;74.98
50310;BME280;36207;51.850;21.698;2023-06-22T06:17:57;100052.03;;;22.52;75.03
50310;BME280;36207;51.850;21.698;2023-06-22T06:20:26;100054.86;;;22.57;75.26
50310;BME280;36207;51.850;21.698;2023-06-22T06:22:56;100057.86;;;22.64;74.96
50310;BME280;36207;51.850;21.698;2023-06-22T06:25:22;100063.14;;;22.69;74.86
50310;BME280;36207;51.850;21.698;2023-06-22T06:27:50;100067.08;;;22.76;75.02
50310;BME280;36207;51.850;21.698;2023-06-22T06:30:18;100071.54;;;22.81;74.81
50310;BME280;36207;51.850;21.698;2023-06-22T06:32:46;100076.65;;;22.83;74.72
50310;BME280;36207;51.850;21.698;2023-06-22T06:35:13;100081.06;;;22.83;74.72
50310;BME280;36207;51.850;21.698;2023-06-22T06:37:41;100082.89;;;22.80;74.84
50310;BME280;36207;51.850;21.698;2023-06-22T06:40:09;100083.80;;;22.72;74.47
50310;BME280;36207;51.850;21.698;2023-06-22T06:42:43;100086.14;;;22.66;74.57
50310;BME280;36207;51.850;21.698;2023-06-22T06:45:19;100087.97;;;22.60;74.95
50310;BME280;36207;51.850;21.698;2023-06-22T06:47:46;100085.00;;;22.56;74.82
50310;BME280;36207;51.850;21.698;2023-06-22T06:50:13;100082.42;;;22.54;74.95
50310;BME280;36207;51.850;21.698;2023-06-22T06:52:39;100082.02;;;22.53;74.85
50310;BME280;36207;51.850;21.698;2023-06-22T06:55:05;100081.50;;;22.55;74.85
50310;BME280;36207;51.850;21.698;2023-06-22T06:57:36;100079.56;;;22.57;74.78
50310;BME280;36207;51.850;21.698;2023-06-22T07:00:05;100078.84;;;22.60;75.06
50310;BME280;36207;51.850;21.698;2023-06-22T07:02:43;100076.09;;;22.63;75.06
50310;BME280;36207;51.850;21.698;2023-06-22T07:05:11;100073.83;;;22.65;75.13
50310;BME280;36207;51.850;21.698;2023-06-22T07:07:38;100073.08;;;22.65;74.83
50310;BME280;36207;51.850;21.698;2023-06-22T07:10:05;100075.04;;;22.68;74.94
50310;BME280;36207;51.850;21.698;2023-06-22T07:12:31;100076.39;;;22.72;75.31
50310;BME280;36207;51.850;21.698;2023-06-22T07:15:05;100071.40;;;22.75;74.75
50310;BME280;36207;51.850;21.698;2023-06-22T07:17:34;100070.65;;;22.76;74.97
50310;BME280;36207;51.850;21.698;2023-06-22T07:20:01;100070.73;;;22.79;75.26
50310;BME280;36207;51.850;21.698;2023-06-22T07:22:28;100073.18;;;22.85;75.19
50310;BME280;36207;51.850;21.698;2023-06-22T07:24:54;100075.47;;;22.97;75.30
50310;BME280;36207;51.850;21.698;2023-06-22T07:27:20;100077.42;;;23.06;75.24
50310;BME280;36207;51.850;21.698;2023-06-22T07:29:47;100077.05;;;23.13;75.24
50310;BME280;36207;51.850;21.698;2023-06-22T07:32:13;100077.67;;;23.23;75.13
50310;BME280;36207;51.850;21.698;2023-06-22T07:34:39;100076.33;;;23.34;75.24
50310;BME280;36207;51.850;21.698;2023-06-22T07:37:05;100078.64;;;23.46;75.13
50310;BME280;36207;51.850;21.698;2023-06-22T07:39:31;100085.88;;;23.54;75.15
50310;BME280;36207;51.850;21.698;2023-06-22T07:41:57;100088.84;;;23.57;75.00
50310;BME280;36207;51.850;21.698;2023-06-22T07:44:23;100090.02;;;23.62;74.79
50310;BME280;36207;51.850;21.698;2023-06-22T07:46:49;100093.31;;;23.63;74.74
50310;BME280;36207;51.850;21.698;2023-06-22T07:49:17;100094.35;;;23.67;74.80
50310;BME280;36207;51.850;21.698;2023-06-22T07:51:43;100092.84;;;23.74;74.71
50310;BME280;36207;51.850;21.698;2023-06-22T07:54:09;100096.33;;;23.75;74.42
50310;BME280;36207;51.850;21.698;2023-06-22T07:56:36;100091.35;;;23.72;74.43
50310;BME280;36207;51.850;21.698;2023-06-22T07:59:03;100092.95;;;23.72;74.35
50310;BME280;36207;51.850;21.698;2023-06-22T08:01:29;100095.77;;;23.79;74.67
50310;BME280;36207;51.850;21.698;2023-06-22T08:03:55;100093.52;;;23.90;74.75
50310;BME280;36207;51.850;21.698;2023-06-22T08:06:21;100095.05;;;24.00;74.68
50310;BME280;36207;51.850;21.698;2023-06-22T08:08:47;100092.48;;;24.03;74.24
50310;BME280;36207;51.850;21.698;2023-06-22T08:11:14;100100.84;;;24.02;74.19
50310;BME280;36207;51.850;21.698;2023-06-22T08:13:40;100102.10;;;24.05;74.34
50310;BME280;36207;51.850;21.698;2023-06-22T08:16:06;100103.12;;;24.13;74.49
50310;BME280;36207;51.850;21.698;2023-06-22T08:18:33;100099.81;;;24.19;74.21
50310;BME280;36207;51.850;21.698;2023-06-22T08:20:59;100101.47;;;24.23;74.08
50310;BME280;36207;51.850;21.698;2023-06-22T08:23:25;100107.64;;;24.26;74.10
50310;BME280;36207;51.850;21.698;2023-06-22T08:25:51;100104.05;;;24.31;74.07
50310;BME280;36207;51.850;21.698;2023-06-22T08:28:17;100106.75;;;24.35;74.15
50310;BME280;36207;51.850;21.698;2023-06-22T08:30:43;100106.02;;;24.43;74.30
50310;BME280;36207;51.850;21.698;2023-06-22T08:33:09;100107.75;;;24.53;73.95
50310;BME280;36207;51.850;21.698;2023-06-22T08:35:35;100111.05;;;24.60;73.84
50310;BME280;36207;51.850;21.698;2023-06-22T08:38:01;100114.27;;;24.64;73.94
50310;BME280;36207;51.850;21.698;2023-06-22T08:40:27;100117.20;;;24.78;74.38
50310;BME280;36207;51.850;21.698;2023-06-22T08:42:55;100124.10;;;24.97;74.21
50310;BME280;36207;51.850;21.698;2023-06-22T08:45:21;100132.36;;;25.10;73.86
50310;BME280;36207;51.850;21.698;2023-06-22T08:47:47;100132.98;;;25.22;73.86
50310;BME280;36207;51.850;21.698;2023-06-22T08:50:13;100132.77;;;25.29;73.32
50310;BME280;36207;51.850;21.698;2023-06-22T08:52:40;100130.25;;;25.35;73.04
50310;BME280;36207;51.850;21.698;2023-06-22T08:55:09;100130.20;;;25.37;72.76
50310;BME280;36207;51.850;21.698;2023-06-22T08:57:36;100130.08;;;25.40;72.83
50310;BME280;36207;51.850;21.698;2023-06-22T09:00:09;100127.45;;;25.44;72.60
50310;BME280;36207;51.850;21.698;2023-06-22T09:02:44;100116.73;;;25.57;72.69
50310;BME280;36207;51.850;21.698;2023-06-22T09:05:10;100116.86;;;25.70;72.89
50310;BME280;36207;51.850;21.698;2023-06-22T09:07:36;100107.70;;;25.90;73.10
50310;BME280;36207;51.850;21.698;2023-06-22T09:10:02;100109.10;;;26.10;72.85
50310;BME280;36207;51.850;21.698;2023-06-22T09:12:32;100108.70;;;26.25;72.41
50310;BME280;36207;51.850;21.698;2023-06-22T09:15:01;100113.81;;;26.34;71.98
50310;BME280;36207;51.850;21.698;2023-06-22T09:17:28;100111.95;;;26.33;70.93
50310;BME280;36207;51.850;21.698;2023-06-22T09:19:54;100105.89;;;26.32;71.07
50310;BME280;36207;51.850;21.698;2023-06-22T09:22:20;100109.58;;;26.38;70.94
50310;BME280;36207;51.850;21.698;2023-06-22T09:24:46;100105.80;;;26.48;71.56
50310;BME280;36207;51.850;21.698;2023-06-22T09:27:12;100101.51;;;26.65;71.33
50310;BME280;36207;51.850;21.698;2023-06-22T09:29:38;100100.46;;;26.73;70.37
50310;BME280;36207;51.850;21.698;2023-06-22T09:32:05;100099.80;;;26.80;70.16
50310;BME280;36207;51.850;21.698;2023-06-22T09:34:31;100098.53;;;26.84;69.30
50310;BME280;36207;51.850;21.698;2023-06-22T09:36:57;100093.77;;;26.89;70.20
50310;BME280;36207;51.850;21.698;2023-06-22T09:39:26;100093.14;;;27.07;70.77
50310;BME280;36207;51.850;21.698;2023-06-22T09:41:52;100091.80;;;27.24;69.99
50310;BME280;36207;51.850;21.698;2023-06-22T09:44:18;100096.30;;;27.33;69.67
50310;BME280;36207;51.850;21.698;2023-06-22T09:46:44;100099.39;;;27.47;69.59
50310;BME280;36207;51.850;21.698;2023-06-22T09:49:10;100098.14;;;27.61;69.54
50310;BME280;36207;51.850;21.698;2023-06-22T09:51:36;100097.52;;;27.73;68.69
50310;BME280;36207;51.850;21.698;2023-06-22T09:54:02;100102.48;;;27.83;68.76
50310;BME280;36207;51.850;21.698;2023-06-22T09:56:28;100095.85;;;27.88;67.89
50310;BME280;36207;51.850;21.698;2023-06-22T09:58:55;100097.94;;;27.92;68.04
50310;BME280;36207;51.850;21.698;2023-06-22T10:01:21;100095.80;;;27.97;67.34
50310;BME280;36207;51.850;21.698;2023-06-22T10:03:48;100096.29;;;28.06;67.65
50310;BME280;36207;51.850;21.698;2023-06-22T10:06:14;100093.92;;;28.11;66.58
50310;BME280;36207;51.850;21.698;2023-06-22T10:08:40;100094.25;;;28.12;66.57
50310;BME280;36207;51.850;21.698;2023-06-22T10:11:06;100088.79;;;28.13;65.81
50310;BME280;36207;51.850;21.698;2023-06-22T10:13:32;100091.30;;;28.13;64.44
50310;BME280;36207;51.850;21.698;2023-06-22T10:15:58;100092.65;;;28.11;64.15
50310;BME280;36207;51.850;21.698;2023-06-22T10:18:24;100094.09;;;28.10;64.58
50310;BME280;36207;51.850;21.698;2023-06-22T10:20:51;100092.20;;;28.17;65.46
50310;BME280;36207;51.850;21.698;2023-06-22T10:23:20;100089.39;;;28.30;65.38
50310;BME280;36207;51.850;21.698;2023-06-22T10:25:46;100089.27;;;28.43;65.71
50310;BME280;36207;51.850;21.698;2023-06-22T10:28:12;100084.20;;;28.57;64.59
50310;BME280;36207;51.850;21.698;2023-06-22T10:30:42;100085.94;;;28.66;63.51
50310;BME280;36207;51.850;21.698;2023-06-22T10:33:09;100087.13;;;28.68;62.48
50310;BME280;36207;51.850;21.698;2023-06-22T10:35:35;100083.67;;;28.70;62.60
50310;BME280;36207;51.850;21.698;2023-06-22T10:38:04;100082.98;;;28.72;61.85
50310;BME280;36207;51.850;21.698;2023-06-22T10:40:30;100083.83;;;28.67;59.98
50310;BME280;36207;51.850;21.698;2023-06-22T10:42:56;100082.86;;;28.70;61.26
50310;BME280;36207;51.850;21.698;2023-06-22T10:45:23;100081.55;;;28.79;60.62
50310;BME280;36207;51.850;21.698;2023-06-22T10:47:49;100074.85;;;28.86;60.78
50310;BME280;36207;51.850;21.698;2023-06-22T10:50:15;100071.44;;;28.96;60.81
50310;BME280;36207;51.850;21.698;2023-06-22T10:52:41;100069.51;;;29.08;60.89
50310;BME280;36207;51.850;21.698;2023-06-22T10:55:09;100067.45;;;29.16;59.76
50310;BME280;36207;51.850;21.698;2023-06-22T10:57:36;100062.77;;;29.23;60.15
50310;BME280;36207;51.850;21.698;2023-06-22T11:00:03;100060.11;;;29.32;59.62
50310;BME280;36207;51.850;21.698;2023-06-22T11:02:32;100060.80;;;29.40;59.86
50310;BME280;36207;51.850;21.698;2023-06-22T11:04:58;100065.71;;;29.48;59.64
50310;BME280;36207;51.850;21.698;2023-06-22T11:07:26;100062.21;;;29.50;58.24
50310;BME280;36207;51.850;21.698;2023-06-22T11:09:54;100063.29;;;29.52;58.51
50310;BME280;36207;51.850;21.698;2023-06-22T11:12:21;100060.49;;;29.54;57.82
50310;BME280;36207;51.850;21.698;2023-06-22T11:14:47;100058.63;;;29.53;57.28
50310;BME280;36207;51.850;21.698;2023-06-22T11:17:13;100059.29;;;29.56;57.37
50310;BME280;36207;51.850;21.698;2023-06-22T11:19:38;100058.52;;;29.59;55.84
50310;BME280;36207;51.850;21.698;2023-06-22T11:22:05;100056.52;;;29.57;55.70
50310;BME280;36207;51.850;21.698;2023-06-22T11:24:31;100052.66;;;29.60;56.51
50310;BME280;36207;51.850;21.698;2023-06-22T11:26:57;100050.98;;;29.69;56.83
50310;BME280;36207;51.850;21.698;2023-06-22T11:29:23;100053.41;;;29.74;56.52
50310;BME280;36207;51.850;21.698;2023-06-22T11:31:48;100044.36;;;29.80;56.04
50310;BME280;36207;51.850;21.698;2023-06-22T11:34:14;100043.56;;;29.82;54.92
50310;BME280;36207;51.850;21.698;2023-06-22T11:36:41;100044.52;;;29.86;55.64
50310;BME280;36207;51.850;21.698;2023-06-22T11:39:08;100041.58;;;29.96;55.34
50310;BME280;36207;51.850;21.698;2023-06-22T11:41:35;100039.59;;;29.95;53.00
50310;BME280;36207;51.850;21.698;2023-06-22T11:44:01;100042.02;;;29.93;53.92
50310;BME280;36207;51.850;21.698;2023-06-22T11:46:27;100041.05;;;29.92;53.03
50310;BME280;36207;51.850;21.698;2023-06-22T11:48:53;100042.42;;;29.91;52.03
50310;BME280;36207;51.850;21.698;2023-06-22T11:51:19;100042.02;;;29.88;50.66
50310;BME280;36207;51.850;21.698;2023-06-22T11:53:45;100041.62;;;29.88;51.86
50310;BME280;36207;51.850;21.698;2023-06-22T11:56:10;100041.54;;;29.87;51.01
50310;BME280;36207;51.850;21.698;2023-06-22T11:58:36;100033.10;;;29.84;51.97
50310;BME280;36207;51.850;21.698;2023-06-22T12:01:02;100028.52;;;29.88;52.57
50310;BME280;36207;51.850;21.698;2023-06-22T12:03:28;100030.58;;;29.94;51.52
50310;BME280;36207;51.850;21.698;2023-06-22T12:05:55;100031.15;;;30.01;51.47
50310;BME280;36207;51.850;21.698;2023-06-22T12:08:22;100028.13;;;30.09;51.83
50310;BME280;36207;51.850;21.698;2023-06-22T12:10:49;100027.17;;;30.17;51.61
50310;BME280;36207;51.850;21.698;2023-06-22T12:13:15;100029.40;;;30.24;51.11
50310;BME280;36207;51.850;21.698;2023-06-22T12:15:41;100029.89;;;30.27;50.28
50310;BME280;36207;51.850;21.698;2023-06-22T12:18:07;100026.95;;;30.30;50.88
50310;BME280;36207;51.850;21.698;2023-06-22T12:20:34;100027.69;;;30.32;48.48
50310;BME280;36207;51.850;21.698;2023-06-22T12:23:01;100029.45;;;30.26;49.01
50310;BME280;36207;51.850;21.698;2023-06-22T12:25:27;100033.30;;;30.29;49.84
50310;BME280;36207;51.850;21.698;2023-06-22T12:27:53;100037.53;;;30.35;49.94
50310;BME280;36207;51.850;21.698;2023-06-22T12:30:19;100036.42;;;30.40;50.47
50310;BME280;36207;51.850;21.698;2023-06-22T12:32:45;100036.50;;;30.46;49.19
50310;BME280;36207;51.850;21.698;2023-06-22T12:35:11;100036.84;;;30.45;48.64
50310;BME280;36207;51.850;21.698;2023-06-22T12:37:42;100037.52;;;30.46;49.12
50310;BME280;36207;51.850;21.698;2023-06-22T12:40:09;100043.44;;;30.51;49.07
50310;BME280;36207;51.850;21.698;2023-06-22T12:42:35;100044.64;;;30.56;49.33
50310;BME280;36207;51.850;21.698;2023-06-22T12:45:02;100045.77;;;30.59;48.60
50310;BME280;36207;51.850;21.698;2023-06-22T12:47:28;100042.14;;;30.55;46.23
50310;BME280;36207;51.850;21.698;2023-06-22T12:49:53;100046.14;;;30.46;46.98
50310;BME280;36207;51.850;21.698;2023-06-22T12:52:19;100049.21;;;30.44;47.12
50310;BME280;36207;51.850;21.698;2023-06-22T12:54:45;100046.07;;;30.40;45.95
50310;BME280;36207;51.850;21.698;2023-06-22T12:57:11;100037.77;;;30.34;45.42
50310;BME280;36207;51.850;21.698;2023-06-22T12:59:37;100034.27;;;30.33;46.29